sensor_id;sensor_type;location;lat;lon;timestamp;P1;durP1;ratioP1;P2;durP2;ratioP2
46158;SDS011;31888;44.512;26.104;2023-07-16T00:00:19;12.60;;;8.55;;
46158;SDS011;31888;44.512;26.104;2023-07-16T00:02:47;14.95;;;8.10;;
46158;SDS011;31888;44.512;26.104;2023-07-16T00:05:13;12.27;;;8.20;;
46158;SDS011;31888;44.512;26.104;2023-07-16T00:07:37;13.95;;;9.23;;
46158;SDS011;31888;44.512;26.104;2023-07-16T00:10:01;16.17;;;8.65;;
46158;SDS011;31888;44.512;26.104;2023-07-16T00:12:26;15.13;;;9.25;;
46158;SDS011;31888;44.512;26.104;2023-07-16T00:14:49;19.40;;;9.18;;
46158;SDS011;31888;44.512;26.104;2023-07-16T00:17:13;23.80;;;9.05;;
46158;SDS011;31888;44.512;26.104;2023-07-16T00:19:38;13.90;;;8.75;;
46158;SDS011;31888;44.512;26.104;2023-07-16T00:22:04;17.60;;;8.95;;
46158;SDS011;31888;44.512;26.104;2023-07-16T00:24:28;15.35;;;8.75;;
46158;SDS011;31888;44.512;26.104;2023-07-16T00:26:52;18.67;;;8.82;;
46158;SDS011;31888;44.512;26.104;2023-07-16T00:29:15;13.43;;;9.05;;
46158;SDS011;31888;44.512;26.104;2023-07-16T00:31:39;14.10;;;9.48;;
46158;SDS011;31888;44.512;26.104;2023-07-16T00:34:03;14.77;;;9.15;;
46158;SDS011;31888;44.512;26.104;2023-07-16T00:36:27;14.05;;;8.27;;
46158;SDS011;31888;44.512;26.104;2023-07-16T00:38:52;14.80;;;8.70;;
46158;SDS011;31888;44.512;26.104;2023-07-16T00:41:16;15.75;;;8.20;;
46158;SDS011;31888;44.512;26.104;2023-07-16T00:43:40;15.52;;;8.25;;
46158;SDS011;31888;44.512;26.104;2023-07-16T00:46:03;14.23;;;8.93;;
46158;SDS011;31888;44.512;26.104;2023-07-16T00:48:27;13.02;;;8.30;;
46158;SDS011;31888;44.512;26.104;2023-07-16T00:50:52;18.90;;;9.43;;
46158;SDS011;31888;44.512;26.104;2023-07-16T00:53:16;12.48;;;8.77;;
46158;SDS011;31888;44.512;26.104;2023-07-16T00:55:42;18.23;;;9.32;;
46158;SDS011;31888;44.512;26.104;2023-07-16T00:58:06;14.55;;;8.43;;
46158;SDS011;31888;44.512;26.104;2023-07-16T01:00:30;13.85;;;9.23;;
46158;SDS011;31888;44.512;26.104;2023-07-16T01:02:55;16.67;;;9.18;;
46158;SDS011;31888;44.512;26.104;2023-07-16T01:05:18;16.55;;;9.27;;
46158;SDS011;31888;44.512;26.104;2023-07-16T01:07:46;15.07;;;9.95;;
46158;SDS011;31888;44.512;26.104;2023-07-16T01:10:16;13.60;;;9.35;;
46158;SDS011;31888;44.512;26.104;2023-07-16T01:12:42;15.60;;;8.75;;
46158;SDS011;31888;44.512;26.104;2023-07-16T01:15:06;19.40;;;9.80;;
46158;SDS011;31888;44.512;26.104;2023-07-16T01:17:33;23.30;;;9.80;;
46158;SDS011;31888;44.512;26.104;2023-07-16T01:19:57;12.50;;;9.45;;
46158;SDS011;31888;44.512;26.104;2023-07-16T01:22:42;15.98;;;10.07;;
46158;SDS011;31888;44.512;26.104;2023-07-16T01:25:24;13.02;;;8.77;;
46158;SDS011;31888;44.512;26.104;2023-07-16T01:28:03;18.33;;;9.70;;
46158;SDS011;31888;44.512;26.104;2023-07-16T01:30:39;16.40;;;10.15;;
46158;SDS011;31888;44.512;26.104;2023-07-16T01:33:06;18.33;;;10.50;;
46158;SDS011;31888;44.512;26.104;2023-07-16T01:35:32;15.10;;;9.57;;
46158;SDS011;31888;44.512;26.104;2023-07-16T01:37:57;20.25;;;9.70;;
46158;SDS011;31888;44.512;26.104;2023-07-16T01:40:21;18.63;;;9.93;;
46158;SDS011;31888;44.512;26.104;2023-07-16T01:42:45;12.57;;;9.10;;
46158;SDS011;31888;44.512;26.104;2023-07-16T01:45:09;13.63;;;9.27;;
46158;SDS011;31888;44.512;26.104;2023-07-16T01:47:35;13.20;;;9.10;;
46158;SDS011;31888;44.512;26.104;2023-07-16T01:50:05;15.60;;;9.85;;
46158;SDS011;31888;44.512;26.104;2023-07-16T01:52:30;16.83;;;10.13;;
46158;SDS011;31888;44.512;26.104;2023-07-16T01:54:54;14.63;;;9.85;;
46158;SDS011;31888;44.512;26.104;2023-07-16T01:57:17;14.60;;;10.18;;
46158;SDS011;31888;44.512;26.104;2023-07-16T01:59:41;15.95;;;9.80;;
46158;SDS011;31888;44.512;26.104;2023-07-16T02:02:07;14.18;;;9.38;;
46158;SDS011;31888;44.512;26.104;2023-07-16T02:04:33;18.20;;;10.55;;
46158;SDS011;31888;44.512;26.104;2023-07-16T02:06:57;17.52;;;10.93;;
46158;SDS011;31888;44.512;26.104;2023-07-16T02:09:21;13.68;;;9.60;;
46158;SDS011;31888;44.512;26.104;2023-07-16T02:11:45;18.70;;;10.80;;
46158;SDS011;31888;44.512;26.104;2023-07-16T02:14:09;19.30;;;9.70;;
46158;SDS011;31888;44.512;26.104;2023-07-16T02:16:33;14.25;;;10.43;;
46158;SDS011;31888;44.512;26.104;2023-07-16T02:18:57;15.43;;;9.70;;
46158;SDS011;31888;44.512;26.104;2023-07-16T02:21:22;19.27;;;9.57;;
46158;SDS011;31888;44.512;26.104;2023-07-16T02:23:46;14.73;;;9.98;;
46158;SDS011;31888;44.512;26.104;2023-07-16T02:26:10;21.55;;;10.23;;
46158;SDS011;31888;44.512;26.104;2023-07-16T02:28:36;17.25;;;9.43;;
46158;SDS011;31888;44.512;26.104;2023-07-16T02:31:02;14.15;;;10.57;;
46158;SDS011;31888;44.512;26.104;2023-07-16T02:33:27;13.75;;;9.68;;
46158;SDS011;31888;44.512;26.104;2023-07-16T02:35:50;18.13;;;9.15;;
46158;SDS011;31888;44.512;26.104;2023-07-16T02:38:17;16.13;;;9.40;;
46158;SDS011;31888;44.512;26.104;2023-07-16T02:40:42;18.00;;;9.55;;
46158;SDS011;31888;44.512;26.104;2023-07-16T02:43:07;18.70;;;10.57;;
46158;SDS011;31888;44.512;26.104;2023-07-16T02:45:32;17.45;;;10.75;;
46158;SDS011;31888;44.512;26.104;2023-07-16T02:47:56;18.85;;;10.15;;
46158;SDS011;31888;44.512;26.104;2023-07-16T02:50:20;18.00;;;9.85;;
46158;SDS011;31888;44.512;26.104;2023-07-16T02:52:44;11.55;;;9.40;;
46158;SDS011;31888;44.512;26.104;2023-07-16T02:55:09;18.88;;;10.48;;
46158;SDS011;31888;44.512;26.104;2023-07-16T02:57:33;15.38;;;10.05;;
46158;SDS011;31888;44.512;26.104;2023-07-16T02:59:57;14.68;;;9.07;;
46158;SDS011;31888;44.512;26.104;2023-07-16T03:02:22;13.40;;;9.07;;
46158;SDS011;31888;44.512;26.104;2023-07-16T03:04:46;14.60;;;8.93;;
46158;SDS011;31888;44.512;26.104;2023-07-16T03:07:10;15.55;;;9.63;;
46158;SDS011;31888;44.512;26.104;2023-07-16T03:09:33;15.38;;;9.20;;
46158;SDS011;31888;44.512;26.104;2023-07-16T03:12:00;17.05;;;8.63;;
46158;SDS011;31888;44.512;26.104;2023-07-16T03:14:25;13.85;;;8.88;;
46158;SDS011;31888;44.512;26.104;2023-07-16T03:16:48;16.83;;;8.55;;
46158;SDS011;31888;44.512;26.104;2023-07-16T03:19:12;13.40;;;8.20;;
46158;SDS011;31888;44.512;26.104;2023-07-16T03:21:36;13.73;;;8.07;;
46158;SDS011;31888;44.512;26.104;2023-07-16T03:24:00;11.13;;;8.35;;
46158;SDS011;31888;44.512;26.104;2023-07-16T03:26:24;13.60;;;7.80;;
46158;SDS011;31888;44.512;26.104;2023-07-16T03:28:49;14.18;;;7.70;;
46158;SDS011;31888;44.512;26.104;2023-07-16T03:31:13;11.13;;;8.02;;
46158;SDS011;31888;44.512;26.104;2023-07-16T03:33:39;11.55;;;7.68;;
46158;SDS011;31888;44.512;26.104;2023-07-16T03:36:03;12.00;;;7.20;;
46158;SDS011;31888;44.512;26.104;2023-07-16T03:38:27;13.10;;;8.15;;
46158;SDS011;31888;44.512;26.104;2023-07-16T03:40:51;12.77;;;7.50;;
46158;SDS011;31888;44.512;26.104;2023-07-16T03:43:14;10.10;;;7.40;;
46158;SDS011;31888;44.512;26.104;2023-07-16T03:45:40;20.45;;;7.72;;
46158;SDS011;31888;44.512;26.104;2023-07-16T03:48:05;10.48;;;7.32;;
46158;SDS011;31888;44.512;26.104;2023-07-16T03:50:30;9.88;;;7.57;;
46158;SDS011;31888;44.512;26.104;2023-07-16T03:52:54;13.77;;;7.25;;
46158;SDS011;31888;44.512;26.104;2023-07-16T03:55:17;10.07;;;6.95;;
46158;SDS011;31888;44.512;26.104;2023-07-16T03:57:41;10.45;;;7.32;;
46158;SDS011;31888;44.512;26.104;2023-07-16T04:00:06;10.02;;;7.47;;
46158;SDS011;31888;44.512;26.104;2023-07-16T04:02:43;10.05;;;7.10;;
46158;SDS011;31888;44.512;26.104;2023-07-16T04:05:11;14.93;;;8.20;;
46158;SDS011;31888;44.512;26.104;2023-07-16T04:07:35;14.15;;;6.95;;
46158;SDS011;31888;44.512;26.104;2023-07-16T04:09:59;12.20;;;7.32;;
46158;SDS011;31888;44.512;26.104;2023-07-16T04:12:23;12.32;;;7.28;;
46158;SDS011;31888;44.512;26.104;2023-07-16T04:14:47;12.40;;;6.93;;
46158;SDS011;31888;44.512;26.104;2023-07-16T04:17:10;10.68;;;6.45;;
46158;SDS011;31888;44.512;26.104;2023-07-16T04:19:36;10.57;;;6.60;;
46158;SDS011;31888;44.512;26.104;2023-07-16T04:22:01;9.77;;;6.47;;
46158;SDS011;31888;44.512;26.104;2023-07-16T04:24:25;10.70;;;6.25;;
46158;SDS011;31888;44.512;26.104;2023-07-16T04:26:49;10.43;;;6.60;;
46158;SDS011;31888;44.512;26.104;2023-07-16T04:29:13;11.30;;;6.60;;
46158;SDS011;31888;44.512;26.104;2023-07-16T04:31:37;8.48;;;6.30;;
46158;SDS011;31888;44.512;26.104;2023-07-16T04:34:01;8.70;;;6.22;;
46158;SDS011;31888;44.512;26.104;2023-07-16T04:36:27;10.85;;;6.07;;
46158;SDS011;31888;44.512;26.104;2023-07-16T04:38:50;8.10;;;6.45;;
46158;SDS011;31888;44.512;26.104;2023-07-16T04:41:15;9.38;;;5.90;;
46158;SDS011;31888;44.512;26.104;2023-07-16T04:43:39;8.30;;;5.63;;
46158;SDS011;31888;44.512;26.104;2023-07-16T04:46:03;12.77;;;5.53;;
46158;SDS011;31888;44.512;26.104;2023-07-16T04:48:27;10.73;;;5.68;;
46158;SDS011;31888;44.512;26.104;2023-07-16T04:50:51;9.73;;;5.95;;
46158;SDS011;31888;44.512;26.104;2023-07-16T04:53:16;9.18;;;5.68;;
46158;SDS011;31888;44.512;26.104;2023-07-16T04:55:40;9.93;;;6.22;;
46158;SDS011;31888;44.512;26.104;2023-07-16T04:58:04;10.55;;;6.68;;
46158;SDS011;31888;44.512;26.104;2023-07-16T05:00:28;9.48;;;6.20;;
46158;SDS011;31888;44.512;26.104;2023-07-16T05:02:54;7.82;;;6.32;;
46158;SDS011;31888;44.512;26.104;2023-07-16T05:05:17;13.57;;;6.70;;
46158;SDS011;31888;44.512;26.104;2023-07-16T05:07:41;7.88;;;5.75;;
46158;SDS011;31888;44.512;26.104;2023-07-16T05:10:07;8.02;;;5.72;;
46158;SDS011;31888;44.512;26.104;2023-07-16T05:12:32;10.48;;;6.00;;
46158;SDS011;31888;44.512;26.104;2023-07-16T05:14:56;7.80;;;5.90;;
46158;SDS011;31888;44.512;26.104;2023-07-16T05:17:20;9.73;;;5.47;;
46158;SDS011;31888;44.512;26.104;2023-07-16T05:19:44;8.40;;;5.53;;
46158;SDS011;31888;44.512;26.104;2023-07-16T05:22:08;9.45;;;5.70;;
46158;SDS011;31888;44.512;26.104;2023-07-16T05:24:32;8.75;;;5.30;;
46158;SDS011;31888;44.512;26.104;2023-07-16T05:27:00;8.57;;;5.03;;
46158;SDS011;31888;44.512;26.104;2023-07-16T05:29:24;8.23;;;5.40;;
46158;SDS011;31888;44.512;26.104;2023-07-16T05:31:48;6.05;;;5.15;;
46158;SDS011;31888;44.512;26.104;2023-07-16T05:34:12;8.18;;;4.95;;
46158;SDS011;31888;44.512;26.104;2023-07-16T05:36:36;8.88;;;5.10;;
46158;SDS011;31888;44.512;26.104;2023-07-16T05:39:00;7.50;;;5.05;;
46158;SDS011;31888;44.512;26.104;2023-07-16T05:41:24;7.22;;;5.13;;
46158;SDS011;31888;44.512;26.104;2023-07-16T05:43:49;8.00;;;5.03;;
46158;SDS011;31888;44.512;26.104;2023-07-16T05:46:13;7.82;;;5.10;;
46158;SDS011;31888;44.512;26.104;2023-07-16T05:48:37;8.57;;;5.20;;
46158;SDS011;31888;44.512;26.104;2023-07-16T05:51:01;9.82;;;5.15;;
46158;SDS011;31888;44.512;26.104;2023-07-16T05:53:25;7.38;;;5.03;;
46158;SDS011;31888;44.512;26.104;2023-07-16T05:55:49;5.57;;;4.60;;
46158;SDS011;31888;44.512;26.104;2023-07-16T05:58:14;6.90;;;5.03;;
46158;SDS011;31888;44.512;26.104;2023-07-16T06:00:39;10.98;;;5.47;;
46158;SDS011;31888;44.512;26.104;2023-07-16T06:03:02;9.68;;;5.55;;
46158;SDS011;31888;44.512;26.104;2023-07-16T06:05:26;8.10;;;4.90;;
46158;SDS011;31888;44.512;26.104;2023-07-16T06:07:54;6.43;;;4.85;;
46158;SDS011;31888;44.512;26.104;2023-07-16T06:10:18;7.20;;;5.35;;
46158;SDS011;31888;44.512;26.104;2023-07-16T06:12:42;11.10;;;5.80;;
46158;SDS011;31888;44.512;26.104;2023-07-16T06:15:06;7.07;;;5.50;;
46158;SDS011;31888;44.512;26.104;2023-07-16T06:17:31;11.40;;;5.30;;
46158;SDS011;31888;44.512;26.104;2023-07-16T06:19:55;8.18;;;5.20;;
46158;SDS011;31888;44.512;26.104;2023-07-16T06:22:19;10.80;;;5.22;;
46158;SDS011;31888;44.512;26.104;2023-07-16T06:24:45;12.65;;;5.28;;
46158;SDS011;31888;44.512;26.104;2023-07-16T06:27:08;7.65;;;5.30;;
46158;SDS011;31888;44.512;26.104;2023-07-16T06:29:32;5.85;;;4.93;;
46158;SDS011;31888;44.512;26.104;2023-07-16T06:31:56;6.50;;;4.63;;
46158;SDS011;31888;44.512;26.104;2023-07-16T06:34:22;5.38;;;4.43;;
46158;SDS011;31888;44.512;26.104;2023-07-16T06:36:46;6.93;;;4.13;;
46158;SDS011;31888;44.512;26.104;2023-07-16T06:39:10;7.53;;;4.85;;
46158;SDS011;31888;44.512;26.104;2023-07-16T06:41:33;9.27;;;4.53;;
46158;SDS011;31888;44.512;26.104;2023-07-16T06:43:59;5.82;;;4.50;;
46158;SDS011;31888;44.512;26.104;2023-07-16T06:46:22;7.18;;;4.97;;
46158;SDS011;31888;44.512;26.104;2023-07-16T06:48:46;4.93;;;4.43;;
46158;SDS011;31888;44.512;26.104;2023-07-16T06:51:11;8.15;;;4.90;;
46158;SDS011;31888;44.512;26.104;2023-07-16T06:53:35;6.97;;;5.10;;
46158;SDS011;31888;44.512;26.104;2023-07-16T06:55:59;7.85;;;4.90;;
46158;SDS011;31888;44.512;26.104;2023-07-16T06:58:30;7.38;;;4.63;;
46158;SDS011;31888;44.512;26.104;2023-07-16T07:00:56;6.80;;;4.70;;
46158;SDS011;31888;44.512;26.104;2023-07-16T07:03:19;8.48;;;5.07;;
46158;SDS011;31888;44.512;26.104;2023-07-16T07:05:43;15.73;;;5.28;;
46158;SDS011;31888;44.512;26.104;2023-07-16T07:08:08;5.55;;;4.78;;
46158;SDS011;31888;44.512;26.104;2023-07-16T07:10:32;6.30;;;4.65;;
46158;SDS011;31888;44.512;26.104;2023-07-16T07:12:59;7.50;;;4.75;;
46158;SDS011;31888;44.512;26.104;2023-07-16T07:15:23;5.75;;;4.60;;
46158;SDS011;31888;44.512;26.104;2023-07-16T07:17:46;6.18;;;5.05;;
46158;SDS011;31888;44.512;26.104;2023-07-16T07:20:12;7.20;;;4.82;;
46158;SDS011;31888;44.512;26.104;2023-07-16T07:22:36;7.20;;;4.40;;
46158;SDS011;31888;44.512;26.104;2023-07-16T07:25:02;6.68;;;4.90;;
46158;SDS011;31888;44.512;26.104;2023-07-16T07:27:26;6.53;;;5.18;;
46158;SDS011;31888;44.512;26.104;2023-07-16T07:29:51;7.07;;;4.32;;
46158;SDS011;31888;44.512;26.104;2023-07-16T07:32:14;9.68;;;4.53;;
46158;SDS011;31888;44.512;26.104;2023-07-16T07:34:38;7.70;;;4.45;;
46158;SDS011;31888;44.512;26.104;2023-07-16T07:37:02;7.47;;;4.22;;
46158;SDS011;31888;44.512;26.104;2023-07-16T07:39:26;6.80;;;4.47;;
46158;SDS011;31888;44.512;26.104;2023-07-16T07:41:51;9.05;;;4.15;;
46158;SDS011;31888;44.512;26.104;2023-07-16T07:44:15;7.28;;;4.47;;
46158;SDS011;31888;44.512;26.104;2023-07-16T07:46:39;6.35;;;4.63;;
46158;SDS011;31888;44.512;26.104;2023-07-16T07:49:03;7.63;;;4.70;;
46158;SDS011;31888;44.512;26.104;2023-07-16T07:51:26;4.68;;;4.22;;
46158;SDS011;31888;44.512;26.104;2023-07-16T07:53:50;6.85;;;4.95;;
46158;SDS011;31888;44.512;26.104;2023-07-16T07:56:14;5.57;;;4.43;;
46158;SDS011;31888;44.512;26.104;2023-07-16T07:58:40;8.43;;;4.45;;
46158;SDS011;31888;44.512;26.104;2023-07-16T08:01:04;5.40;;;4.53;;
46158;SDS011;31888;44.512;26.104;2023-07-16T08:03:28;8.32;;;4.57;;
46158;SDS011;31888;44.512;26.104;2023-07-16T08:05:52;6.07;;;4.97;;
46158;SDS011;31888;44.512;26.104;2023-07-16T08:08:16;5.28;;;4.43;;
46158;SDS011;31888;44.512;26.104;2023-07-16T08:10:40;5.97;;;4.72;;
46158;SDS011;31888;44.512;26.104;2023-07-16T08:13:03;10.18;;;4.72;;
46158;SDS011;31888;44.512;26.104;2023-07-16T08:15:29;6.55;;;4.65;;
46158;SDS011;31888;44.512;26.104;2023-07-16T08:17:53;6.47;;;4.80;;
46158;SDS011;31888;44.512;26.104;2023-07-16T08:20:21;6.43;;;4.47;;
46158;SDS011;31888;44.512;26.104;2023-07-16T08:22:45;7.72;;;4.75;;
46158;SDS011;31888;44.512;26.104;2023-07-16T08:25:08;7.70;;;4.72;;
46158;SDS011;31888;44.512;26.104;2023-07-16T08:27:32;6.45;;;4.88;;
46158;SDS011;31888;44.512;26.104;2023-07-16T08:29:56;8.50;;;5.03;;
46158;SDS011;31888;44.512;26.104;2023-07-16T08:32:22;6.75;;;5.22;;
46158;SDS011;31888;44.512;26.104;2023-07-16T08:34:46;6.55;;;5.28;;
46158;SDS011;31888;44.512;26.104;2023-07-16T08:37:10;7.03;;;5.20;;
46158;SDS011;31888;44.512;26.104;2023-07-16T08:39:34;7.60;;;5.28;;
46158;SDS011;31888;44.512;26.104;2023-07-16T08:41:58;7.05;;;5.32;;
46158;SDS011;31888;44.512;26.104;2023-07-16T08:44:21;7.90;;;5.00;;
46158;SDS011;31888;44.512;26.104;2023-07-16T08:46:46;8.25;;;5.35;;
46158;SDS011;31888;44.512;26.104;2023-07-16T08:49:11;6.35;;;5.13;;
46158;SDS011;31888;44.512;26.104;2023-07-16T08:51:35;11.48;;;5.60;;
46158;SDS011;31888;44.512;26.104;2023-07-16T08:54:00;9.68;;;5.50;;
46158;SDS011;31888;44.512;26.104;2023-07-16T08:56:24;6.90;;;5.25;;
46158;SDS011;31888;44.512;26.104;2023-07-16T08:58:49;7.93;;;5.50;;
46158;SDS011;31888;44.512;26.104;2023-07-16T09:01:17;7.72;;;5.32;;
46158;SDS011;31888;44.512;26.104;2023-07-16T09:03:44;10.07;;;4.97;;
46158;SDS011;31888;44.512;26.104;2023-07-16T09:06:10;8.60;;;5.10;;
46158;SDS011;31888;44.512;26.104;2023-07-16T09:08:34;9.80;;;5.22;;
46158;SDS011;31888;44.512;26.104;2023-07-16T09:10:58;6.90;;;5.38;;
46158;SDS011;31888;44.512;26.104;2023-07-16T09:13:22;10.40;;;5.38;;
46158;SDS011;31888;44.512;26.104;2023-07-16T09:15:50;9.57;;;5.20;;
46158;SDS011;31888;44.512;26.104;2023-07-16T09:18:19;7.63;;;5.47;;
46158;SDS011;31888;44.512;26.104;2023-07-16T09:20:44;12.13;;;5.10;;
46158;SDS011;31888;44.512;26.104;2023-07-16T09:23:09;9.02;;;6.07;;
46158;SDS011;31888;44.512;26.104;2023-07-16T09:25:33;6.53;;;5.55;;
46158;SDS011;31888;44.512;26.104;2023-07-16T09:27:58;6.80;;;5.35;;
46158;SDS011;31888;44.512;26.104;2023-07-16T09:30:29;7.47;;;4.43;;
46158;SDS011;31888;44.512;26.104;2023-07-16T09:32:54;7.80;;;4.40;;
46158;SDS011;31888;44.512;26.104;2023-07-16T09:35:18;11.40;;;5.22;;
46158;SDS011;31888;44.512;26.104;2023-07-16T09:37:42;7.15;;;4.78;;
46158;SDS011;31888;44.512;26.104;2023-07-16T09:40:08;7.75;;;5.13;;
46158;SDS011;31888;44.512;26.104;2023-07-16T09:42:34;8.23;;;4.78;;
46158;SDS011;31888;44.512;26.104;2023-07-16T09:45:00;8.88;;;5.40;;
46158;SDS011;31888;44.512;26.104;2023-07-16T09:47:25;8.00;;;4.93;;
46158;SDS011;31888;44.512;26.104;2023-07-16T09:49:49;7.68;;;5.55;;
46158;SDS011;31888;44.512;26.104;2023-07-16T09:52:12;9.05;;;4.85;;
46158;SDS011;31888;44.512;26.104;2023-07-16T09:54:37;9.85;;;5.55;;
46158;SDS011;31888;44.512;26.104;2023-07-16T09:57:05;11.05;;;5.35;;
46158;SDS011;31888;44.512;26.104;2023-07-16T09:59:31;7.78;;;5.53;;
46158;SDS011;31888;44.512;26.104;2023-07-16T10:01:56;8.45;;;5.28;;
46158;SDS011;31888;44.512;26.104;2023-07-16T10:04:20;9.20;;;5.28;;
46158;SDS011;31888;44.512;26.104;2023-07-16T10:06:54;7.47;;;4.97;;
46158;SDS011;31888;44.512;26.104;2023-07-16T10:09:32;9.25;;;5.25;;
46158;SDS011;31888;44.512;26.104;2023-07-16T10:12:07;8.23;;;5.28;;
46158;SDS011;31888;44.512;26.104;2023-07-16T10:14:38;8.95;;;5.13;;
46158;SDS011;31888;44.512;26.104;2023-07-16T10:17:04;7.17;;;5.27;;
46158;SDS011;31888;44.512;26.104;2023-07-16T10:19:28;9.20;;;6.20;;
46158;SDS011;31888;44.512;26.104;2023-07-16T10:21:52;8.05;;;5.07;;
46158;SDS011;31888;44.512;26.104;2023-07-16T10:24:16;9.32;;;5.80;;
46158;SDS011;31888;44.512;26.104;2023-07-16T10:26:41;11.50;;;5.60;;
46158;SDS011;31888;44.512;26.104;2023-07-16T10:29:06;7.88;;;5.28;;
46158;SDS011;31888;44.512;26.104;2023-07-16T10:31:30;8.57;;;5.50;;
46158;SDS011;31888;44.512;26.104;2023-07-16T10:33:58;8.35;;;5.72;;
46158;SDS011;31888;44.512;26.104;2023-07-16T10:36:23;10.73;;;5.32;;
46158;SDS011;31888;44.512;26.104;2023-07-16T10:38:47;10.05;;;5.25;;
46158;SDS011;31888;44.512;26.104;2023-07-16T10:41:11;7.72;;;5.63;;
46158;SDS011;31888;44.512;26.104;2023-07-16T10:43:35;10.60;;;5.07;;
46158;SDS011;31888;44.512;26.104;2023-07-16T10:46:01;10.98;;;5.93;;
46158;SDS011;31888;44.512;26.104;2023-07-16T10:48:25;11.25;;;5.78;;
46158;SDS011;31888;44.512;26.104;2023-07-16T10:50:52;8.93;;;5.35;;
46158;SDS011;31888;44.512;26.104;2023-07-16T10:53:16;6.22;;;5.35;;
46158;SDS011;31888;44.512;26.104;2023-07-16T10:55:42;11.90;;;5.25;;
46158;SDS011;31888;44.512;26.104;2023-07-16T10:58:07;11.80;;;6.00;;
46158;SDS011;31888;44.512;26.104;2023-07-16T11:00:30;10.88;;;5.10;;
46158;SDS011;31888;44.512;26.104;2023-07-16T11:02:56;9.80;;;5.30;;
46158;SDS011;31888;44.512;26.104;2023-07-16T11:05:20;9.13;;;5.82;;
46158;SDS011;31888;44.512;26.104;2023-07-16T11:07:44;7.28;;;5.28;;
46158;SDS011;31888;44.512;26.104;2023-07-16T11:10:15;7.47;;;5.78;;
46158;SDS011;31888;44.512;26.104;2023-07-16T11:12:41;8.70;;;5.68;;
46158;SDS011;31888;44.512;26.104;2023-07-16T11:15:05;7.95;;;6.22;;
46158;SDS011;31888;44.512;26.104;2023-07-16T11:17:30;8.13;;;5.20;;
46158;SDS011;31888;44.512;26.104;2023-07-16T11:19:55;9.80;;;5.68;;
46158;SDS011;31888;44.512;26.104;2023-07-16T11:22:24;7.60;;;5.63;;
46158;SDS011;31888;44.512;26.104;2023-07-16T11:24:50;11.10;;;8.30;;
46158;SDS011;31888;44.512;26.104;2023-07-16T11:27:14;7.38;;;5.85;;
46158;SDS011;31888;44.512;26.104;2023-07-16T11:29:39;9.52;;;7.22;;
46158;SDS011;31888;44.512;26.104;2023-07-16T11:32:04;10.13;;;6.03;;
46158;SDS011;31888;44.512;26.104;2023-07-16T11:34:29;10.48;;;8.30;;
46158;SDS011;31888;44.512;26.104;2023-07-16T11:36:54;8.50;;;6.30;;
46158;SDS011;31888;44.512;26.104;2023-07-16T11:39:18;6.68;;;4.82;;
46158;SDS011;31888;44.512;26.104;2023-07-16T11:41:42;7.47;;;5.32;;
46158;SDS011;31888;44.512;26.104;2023-07-16T11:44:19;6.70;;;4.60;;
46158;SDS011;31888;44.512;26.104;2023-07-16T11:46:46;8.25;;;5.40;;
46158;SDS011;31888;44.512;26.104;2023-07-16T11:49:10;9.02;;;5.70;;
46158;SDS011;31888;44.512;26.104;2023-07-16T11:51:34;7.25;;;5.20;;
46158;SDS011;31888;44.512;26.104;2023-07-16T11:53:59;6.60;;;5.28;;
46158;SDS011;31888;44.512;26.104;2023-07-16T11:56:23;8.30;;;5.70;;
46158;SDS011;31888;44.512;26.104;2023-07-16T11:58:47;8.15;;;6.00;;
46158;SDS011;31888;44.512;26.104;2023-07-16T12:01:11;9.50;;;5.53;;
46158;SDS011;31888;44.512;26.104;2023-07-16T12:03:36;8.85;;;5.95;;
46158;SDS011;31888;44.512;26.104;2023-07-16T12:06:00;10.85;;;5.78;;
46158;SDS011;31888;44.512;26.104;2023-07-16T12:08:24;9.52;;;5.53;;
46158;SDS011;31888;44.512;26.104;2023-07-16T12:10:49;7.00;;;5.35;;
46158;SDS011;31888;44.512;26.104;2023-07-16T12:13:13;5.97;;;5.00;;
46158;SDS011;31888;44.512;26.104;2023-07-16T12:15:36;9.02;;;5.30;;
46158;SDS011;31888;44.512;26.104;2023-07-16T12:17:59;8.13;;;5.20;;
46158;SDS011;31888;44.512;26.104;2023-07-16T12:20:23;8.45;;;5.07;;
46158;SDS011;31888;44.512;26.104;2023-07-16T12:22:47;6.88;;;5.28;;
46158;SDS011;31888;44.512;26.104;2023-07-16T12:25:11;8.50;;;4.97;;
46158;SDS011;31888;44.512;26.104;2023-07-16T12:27:36;10.65;;;5.80;;
46158;SDS011;31888;44.512;26.104;2023-07-16T12:30:00;10.50;;;6.60;;
46158;SDS011;31888;44.512;26.104;2023-07-16T12:32:24;8.13;;;5.57;;
46158;SDS011;31888;44.512;26.104;2023-07-16T12:34:48;9.20;;;5.13;;
46158;SDS011;31888;44.512;26.104;2023-07-16T12:37:11;7.50;;;5.75;;
46158;SDS011;31888;44.512;26.104;2023-07-16T12:39:35;10.57;;;6.13;;
46158;SDS011;31888;44.512;26.104;2023-07-16T12:41:59;5.95;;;5.20;;
46158;SDS011;31888;44.512;26.104;2023-07-16T12:44:24;8.73;;;6.43;;
46158;SDS011;31888;44.512;26.104;2023-07-16T12:46:48;9.70;;;6.18;;
46158;SDS011;31888;44.512;26.104;2023-07-16T12:49:12;8.40;;;5.55;;
46158;SDS011;31888;44.512;26.104;2023-07-16T12:51:36;8.05;;;5.55;;
46158;SDS011;31888;44.512;26.104;2023-07-16T12:54:00;8.93;;;5.28;;
46158;SDS011;31888;44.512;26.104;2023-07-16T12:56:23;8.73;;;5.65;;
46158;SDS011;31888;44.512;26.104;2023-07-16T12:58:47;9.50;;;5.82;;
46158;SDS011;31888;44.512;26.104;2023-07-16T13:01:13;9.30;;;5.90;;
46158;SDS011;31888;44.512;26.104;2023-07-16T13:03:37;10.18;;;6.18;;
46158;SDS011;31888;44.512;26.104;2023-07-16T13:06:00;10.98;;;5.90;;
46158;SDS011;31888;44.512;26.104;2023-07-16T13:08:25;10.02;;;5.75;;
46158;SDS011;31888;44.512;26.104;2023-07-16T13:10:49;10.77;;;6.28;;
46158;SDS011;31888;44.512;26.104;2023-07-16T13:13:13;8.75;;;6.00;;
46158;SDS011;31888;44.512;26.104;2023-07-16T13:15:37;11.25;;;5.53;;
46158;SDS011;31888;44.512;26.104;2023-07-16T13:18:02;6.78;;;5.82;;
46158;SDS011;31888;44.512;26.104;2023-07-16T13:20:26;9.40;;;5.65;;
46158;SDS011;31888;44.512;26.104;2023-07-16T13:22:51;7.40;;;5.68;;
46158;SDS011;31888;44.512;26.104;2023-07-16T13:25:15;12.13;;;5.72;;
46158;SDS011;31888;44.512;26.104;2023-07-16T13:27:39;8.35;;;5.50;;
46158;SDS011;31888;44.512;26.104;2023-07-16T13:30:03;7.07;;;5.68;;
46158;SDS011;31888;44.512;26.104;2023-07-16T13:32:28;6.93;;;5.70;;
46158;SDS011;31888;44.512;26.104;2023-07-16T13:34:53;7.05;;;5.40;;
46158;SDS011;31888;44.512;26.104;2023-07-16T13:37:17;6.75;;;5.65;;
46158;SDS011;31888;44.512;26.104;2023-07-16T13:39:41;12.05;;;6.18;;
46158;SDS011;31888;44.512;26.104;2023-07-16T13:42:05;8.57;;;5.45;;
46158;SDS011;31888;44.512;26.104;2023-07-16T13:44:43;6.35;;;5.40;;
46158;SDS011;31888;44.512;26.104;2023-07-16T13:47:07;8.02;;;5.72;;
46158;SDS011;31888;44.512;26.104;2023-07-16T13:49:31;7.60;;;5.90;;
46158;SDS011;31888;44.512;26.104;2023-07-16T13:51:56;8.85;;;6.05;;
46158;SDS011;31888;44.512;26.104;2023-07-16T13:54:20;9.55;;;5.38;;
46158;SDS011;31888;44.512;26.104;2023-07-16T13:56:44;6.20;;;5.60;;
46158;SDS011;31888;44.512;26.104;2023-07-16T13:59:07;8.13;;;5.95;;
46158;SDS011;31888;44.512;26.104;2023-07-16T14:01:31;8.85;;;6.07;;
46158;SDS011;31888;44.512;26.104;2023-07-16T14:03:55;10.95;;;6.05;;
46158;SDS011;31888;44.512;26.104;2023-07-16T14:06:19;9.95;;;5.60;;
46158;SDS011;31888;44.512;26.104;2023-07-16T14:08:44;7.97;;;5.55;;
46158;SDS011;31888;44.512;26.104;2023-07-16T14:11:08;11.82;;;6.40;;
46158;SDS011;31888;44.512;26.104;2023-07-16T14:13:32;7.50;;;5.97;;